Time;durP1;ratioP1;P1;durP2;ratioP2;P2;SDS_P1;SDS_P2;PMS_P1;PMS_P2;Temp;Humidity;BMP_temperature;BMP_pressure;BME280_temperature;BME280_humidity;BME280_pressure;Samples;Min_cycle;Max_cycle;Signal;HPM_P1;HPM_P2
2023/10/13 00:02:01;;;;;;;15.93;6.93;;;13.40;97.80;;;;;;5040729;28;20462;-57
2023/10/13 00:04:27;;;;;;;12.33;7.03;;;13.40;98.40;;;;;;5039994;28;20422;-51
2023/10/13 00:06:56;;;;;;;12.90;6.83;;;13.30;98.90;;;;;;5038031;28;20430;-56
2023/10/13 00:09:25;;;;;;;17.90;7.20;;;13.30;99.00;;;;;;5041639;28;20940;-57
2023/10/13 00:11:53;;;;;;;15.63;8.33;;;13.20;99.20;;;;;;5038629;28;20523;-54
2023/10/13 00:14:22;;;;;;;21.40;7.47;;;13.20;99.40;;;;;;5040433;28;20426;-56
2023/10/13 00:19:52;;;;;;;10.47;6.90;;;13.20;99.70;;;;;;5040846;28;20432;-59
2023/10/13 00:22:22;;;;;;;11.27;7.17;;;13.20;99.90;;;;;;5038901;28;20457;-55
2023/10/13 00:24:51;;;;;;;15.83;7.60;;;13.20;99.90;;;;;;5038211;28;20429;-58
2023/10/13 00:27:33;;;;;;;15.60;7.57;;;13.10;99.90;;;;;;5041175;28;20421;-56
2023/10/13 00:32:52;;;;;;;17.80;8.10;;;13.00;99.90;;;;;;5039539;28;20966;-57
2023/10/13 00:35:36;;;;;;;10.20;7.20;;;12.90;99.90;;;;;;5038055;28;20940;-59
2023/10/13 00:38:18;;;;;;;15.90;7.40;;;12.80;99.90;;;;;;5045214;28;20472;-56
2023/10/13 00:40:51;;;;;;;11.10;7.00;;;12.80;99.90;;;;;;5030929;28;20429;-58
2023/10/13 00:45:54;;;;;;;17.70;6.97;;;12.70;99.90;;;;;;5046599;28;20870;-56
2023/10/13 00:48:34;;;;;;;12.23;7.53;;;12.60;99.90;;;;;;5042467;28;20429;-56
2023/10/13 00:51:06;;;;;;;13.00;6.77;;;12.60;99.90;;;;;;5038325;28;20441;-55
2023/10/13 00:53:44;;;;;;;14.27;6.83;;;12.50;99.90;;;;;;5040785;28;20426;-60
2023/10/13 00:56:18;;;;;;;13.57;7.13;;;12.50;99.90;;;;;;5043936;28;20430;-56
2023/10/13 00:58:52;;;;;;;11.73;6.57;;;12.40;99.90;;;;;;5041399;28;20433;-56
2023/10/13 01:01:21;;;;;;;18.10;6.20;;;12.40;99.90;;;;;;5044125;28;20449;-56
2023/10/13 01:03:55;;;;;;;11.50;6.30;;;12.40;99.90;;;;;;5045323;28;20494;-57
2023/10/13 01:06:25;;;;;;;14.83;7.23;;;12.30;99.90;;;;;;5038157;28;20425;-59
2023/10/13 01:09:18;;;;;;;11.63;6.20;;;12.30;99.90;;;;;;5045905;28;20844;-59
2023/10/13 01:11:48;;;;;;;15.10;6.90;;;12.30;99.90;;;;;;5043289;28;20480;-53
2023/10/13 01:14:17;;;;;;;10.00;6.27;;;12.20;99.90;;;;;;5042986;28;20422;-55
2023/10/13 01:16:43;;;;;;;8.90;5.60;;;12.20;99.90;;;;;;5032079;28;20461;-58
2023/10/13 01:19:12;;;;;;;12.73;5.87;;;12.10;99.90;;;;;;5044280;28;20414;-55
2023/10/13 01:21:40;;;;;;;13.33;6.30;;;12.10;99.90;;;;;;5041862;28;20929;-56
2023/10/13 01:24:07;;;;;;;10.93;6.40;;;12.10;99.90;;;;;;5043061;28;20550;-57
2023/10/13 01:26:38;;;;;;;10.73;6.20;;;12.00;99.90;;;;;;5044742;28;20468;-59
2023/10/13 01:29:14;;;;;;;13.27;6.30;;;12.00;99.90;;;;;;5047077;28;20434;-55
2023/10/13 01:31:47;;;;;;;15.73;6.20;;;12.00;99.90;;;;;;5047846;28;20433;-55
2023/10/13 01:34:12;;;;;;;13.43;6.43;;;12.00;99.90;;;;;;5048002;28;20429;-59
2023/10/13 01:36:40;;;;;;;16.40;6.20;;;11.90;99.90;;;;;;5046198;28;20825;-56
2023/10/13 01:39:07;;;;;;;11.20;6.83;;;11.90;99.90;;;;;;5041545;28;20183;-57
2023/10/13 01:41:37;;;;;;;11.73;6.03;;;11.90;99.90;;;;;;5044054;28;20453;-59
2023/10/13 01:44:03;;;;;;;14.07;6.77;;;11.90;99.90;;;;;;5043612;28;20488;-57
2023/10/13 01:46:29;;;;;;;15.00;6.63;;;11.90;99.90;;;;;;5048930;28;20428;-58
2023/10/13 01:48:57;;;;;;;14.90;6.83;;;11.90;99.90;;;;;;5047517;28;20512;-57
2023/10/13 01:51:28;;;;;;;14.83;6.67;;;11.80;99.90;;;;;;5036397;28;20264;-55
2023/10/13 01:53:57;;;;;;;13.63;6.80;;;11.80;99.90;;;;;;5046499;28;20458;-56
2023/10/13 01:56:29;;;;;;;20.13;6.77;;;11.80;99.90;;;;;;5046471;28;20994;-55
2023/10/13 01:58:55;;;;;;;12.63;6.37;;;11.80;99.90;;;;;;5042808;28;20508;-58
2023/10/13 02:01:27;;;;;;;15.20;6.90;;;11.80;99.90;;;;;;5043674;28;20564;-56
2023/10/13 02:04:04;;;;;;;13.17;6.60;;;11.80;99.90;;;;;;5042777;28;20206;-55
2023/10/13 02:06:33;;;;;;;15.57;7.77;;;11.80;99.90;;;;;;5041083;28;20908;-56
2023/10/13 02:09:25;;;;;;;12.17;6.30;;;11.70;99.90;;;;;;5045886;28;20831;-55
2023/10/13 02:11:54;;;;;;;11.40;6.60;;;11.70;99.90;;;;;;5041754;28;20464;-57
2023/10/13 02:14:22;;;;;;;14.23;6.70;;;11.70;99.90;;;;;;5041548;28;20985;-57
2023/10/13 02:16:50;;;;;;;9.50;5.83;;;11.60;99.90;;;;;;5041824;28;20454;-59
2023/10/13 02:19:19;;;;;;;12.43;6.10;;;11.60;99.90;;;;;;5039250;28;20567;-58
2023/10/13 02:21:45;;;;;;;12.90;6.67;;;11.50;99.90;;;;;;5041339;28;20468;-58
2023/10/13 02:24:17;;;;;;;10.90;6.47;;;11.50;99.90;;;;;;5041842;28;20425;-56
2023/10/13 02:26:44;;;;;;;12.07;6.40;;;11.50;99.90;;;;;;5045058;28;20182;-56
2023/10/13 02:29:13;;;;;;;12.07;6.50;;;11.40;99.90;;;;;;5043112;28;20449;-55
2023/10/13 02:31:41;;;;;;;10.90;6.50;;;11.40;99.90;;;;;;5041141;28;20483;-56
2023/10/13 02:34:08;;;;;;;12.40;6.57;;;11.30;99.90;;;;;;5041893;28;20447;-58
2023/10/13 02:36:46;;;;;;;9.20;5.87;;;11.30;99.90;;;;;;5041978;28;22029;-58
2023/10/13 02:39:13;;;;;;;15.17;6.40;;;11.20;99.90;;;;;;5039667;28;20464;-57
2023/10/13 02:41:41;;;;;;;9.93;6.80;;;11.20;99.90;;;;;;5039050;28;20453;-56
2023/10/13 02:44:08;;;;;;;17.63;6.80;;;11.10;99.90;;;;;;5042460;28;20467;-58
2023/10/13 02:46:39;;;;;;;12.60;6.60;;;11.10;99.90;;;;;;5045131;28;20436;-55
2023/10/13 02:49:11;;;;;;;10.17;5.77;;;11.10;99.90;;;;;;5044173;28;20418;-58
2023/10/13 02:51:43;;;;;;;8.70;5.83;;;11.00;99.90;;;;;;5040200;28;20450;-58
2023/10/13 02:54:20;;;;;;;13.40;6.17;;;11.00;99.90;;;;;;5044315;28;20509;-56
2023/10/13 02:57:03;;;;;;;11.27;6.40;;;11.00;99.90;;;;;;5046274;28;20453;-56
2023/10/13 02:59:56;;;;;;;11.00;6.23;;;11.00;99.90;;;;;;5044741;28;21208;-56
2023/10/13 03:02:25;;;;;;;8.77;5.57;;;10.90;99.90;;;;;;5045985;28;20556;-58
2023/10/13 03:04:59;;;;;;;13.87;6.50;;;10.90;99.90;;;;;;5045020;28;20421;-56
2023/10/13 03:07:30;;;;;;;10.97;5.83;;;10.90;99.90;;;;;;5046014;28;20468;-58
2023/10/13 03:10:01;;;;;;;14.43;6.87;;;10.80;99.90;;;;;;5048121;28;20422;-57
2023/10/13 03:12:33;;;;;;;10.53;6.40;;;10.80;99.90;;;;;;5045084;28;20479;-56
2023/10/13 03:15:12;;;;;;;13.90;6.33;;;10.80;99.90;;;;;;5037644;28;20516;-57
2023/10/13 03:17:43;;;;;;;11.07;6.30;;;10.80;99.90;;;;;;5043475;28;20462;-54
2023/10/13 03:20:12;;;;;;;8.97;6.13;;;10.70;99.90;;;;;;5048817;28;20887;-57
2023/10/13 03:22:38;;;;;;;11.83;6.30;;;10.70;99.90;;;;;;5047333;28;20452;-54
2023/10/13 03:25:13;;;;;;;9.40;6.37;;;10.60;99.90;;;;;;5043510;28;20838;-57
2023/10/13 03:27:41;;;;;;;11.83;6.57;;;10.60;99.90;;;;;;5047943;28;20177;-57
2023/10/13 03:30:16;;;;;;;8.53;6.17;;;10.60;99.90;;;;;;5045321;28;20426;-56
2023/10/13 03:32:54;;;;;;;17.23;7.10;;;10.60;99.90;;;;;;5040167;28;20448;-57
2023/10/13 03:35:37;;;;;;;9.40;6.20;;;10.60;99.90;;;;;;5046547;28;20813;-55
2023/10/13 03:38:03;;;;;;;10.60;6.23;;;10.60;99.90;;;;;;5048103;28;20461;-56
2023/10/13 03:43:12;;;;;;;12.10;6.80;;;10.50;99.90;;;;;;5045769;28;20437;-57
2023/10/13 03:45:42;;;;;;;12.03;6.60;;;10.50;99.90;;;;;;5044877;28;20195;-56
2023/10/13 03:51:03;;;;;;;9.90;6.10;;;10.50;99.90;;;;;;5044804;28;20426;-58
2023/10/13 03:53:33;;;;;;;12.37;6.63;;;10.50;99.90;;;;;;5044277;28;20512;-59
2023/10/13 03:56:11;;;;;;;8.60;5.57;;;10.40;99.90;;;;;;5044432;28;20460;-58
2023/10/13 03:58:39;;;;;;;15.17;6.60;;;10.40;99.90;;;;;;5042675;28;20425;-58
2023/10/13 04:01:09;;;;;;;9.77;5.60;;;10.30;99.90;;;;;;5046004;28;20487;-57
2023/10/13 04:03:36;;;;;;;10.13;5.93;;;10.30;99.90;;;;;;5042632;28;20434;-58
2023/10/13 04:06:08;;;;;;;11.83;6.50;;;10.30;99.90;;;;;;5045446;28;20445;-60
2023/10/13 04:16:38;;;;;;;13.83;7.10;;;10.20;99.90;;;;;;5046405;28;20456;-58
2023/10/13 04:19:08;;;;;;;13.23;6.53;;;10.20;99.90;;;;;;5048634;28;20418;-59
2023/10/13 04:21:39;;;;;;;17.50;7.50;;;10.20;99.90;;;;;;5036754;28;20506;-58
2023/10/13 04:24:23;;;;;;;9.90;6.67;;;10.20;99.90;;;;;;5041742;28;20421;-56
2023/10/13 04:32:28;;;;;;;18.60;7.57;;;10.10;99.90;;;;;;5027590;28;20978;-59
2023/10/13 04:35:08;;;;;;;12.33;7.43;;;10.10;99.90;;;;;;5040160;28;20430;-59
2023/10/13 04:37:48;;;;;;;17.83;8.33;;;10.10;99.90;;;;;;5034360;28;20827;-58
2023/10/13 04:40:14;;;;;;;10.97;7.33;;;10.10;99.90;;;;;;5042381;28;20453;-57
2023/10/13 04:42:49;;;;;;;13.67;7.20;;;10.00;99.90;;;;;;5045743;28;20697;-57
2023/10/13 04:48:17;;;;;;;16.63;8.53;;;10.00;99.90;;;;;;5041961;28;20445;-56
2023/10/13 04:50:46;;;;;;;16.77;7.87;;;10.00;99.90;;;;;;5042997;28;20434;-55
2023/10/13 05:44:56;;;;;;;24.07;7.33;;;9.70;99.90;;;;;;5049537;28;20512;-55
2023/10/13 05:50:57;;;;;;;17.07;7.37;;;9.80;99.90;;;;;;5044986;28;20532;-55
2023/10/13 06:31:07;;;;;;;15.70;8.90;;;9.70;99.90;;;;;;5029099;28;20970;-59
2023/10/13 06:33:35;;;;;;;18.30;7.73;;;9.70;99.90;;;;;;5041292;28;20426;-58
2023/10/13 06:36:03;;;;;;;22.73;7.50;;;9.70;99.90;;;;;;5045961;28;20971;-56
2023/10/13 06:38:36;;;;;;;14.77;8.37;;;9.70;99.90;;;;;;5037695;28;20507;-56
2023/10/13 06:41:19;;;;;;;14.80;8.20;;;9.80;99.90;;;;;;5047597;28;20496;-55
2023/10/13 06:43:45;;;;;;;26.30;8.50;;;9.80;99.90;;;;;;5048039;28;20475;-54
2023/10/13 06:46:23;;;;;;;15.50;7.40;;;9.80;99.90;;;;;;5046656;28;20426;-59
2023/10/13 06:48:53;;;;;;;14.67;8.00;;;9.90;99.90;;;;;;5050284;28;20247;-60
2023/10/13 06:51:22;;;;;;;16.60;7.40;;;9.90;99.90;;;;;;5046052;28;20491;-58
2023/10/13 06:53:48;;;;;;;12.63;7.73;;;10.00;99.90;;;;;;5047134;28;20868;-55
2023/10/13 06:56:39;;;;;;;16.57;9.30;;;10.00;99.90;;;;;;5043314;28;20425;-55
2023/10/13 06:59:04;;;;;;;14.33;8.50;;;10.00;99.90;;;;;;5046830;28;20510;-55
2023/10/13 07:01:31;;;;;;;11.67;7.40;;;10.10;99.90;;;;;;5047159;28;20453;-57
2023/10/13 07:04:01;;;;;;;15.53;7.90;;;10.20;99.90;;;;;;5038634;28;20503;-60
2023/10/13 07:06:27;;;;;;;13.70;7.83;;;10.30;99.90;;;;;;5039920;28;20511;-57
2023/10/13 07:08:53;;;;;;;15.90;9.10;;;10.30;99.90;;;;;;5044460;28;20452;-55
2023/10/13 07:11:32;;;;;;;11.87;7.30;;;10.40;99.90;;;;;;5046671;28;20429;-54
2023/10/13 07:14:00;;;;;;;18.03;8.83;;;10.50;99.90;;;;;;5045766;28;20297;-54
2023/10/13 07:16:35;;;;;;;14.90;8.00;;;10.60;99.90;;;;;;5047855;28;20414;-55
2023/10/13 07:19:05;;;;;;;18.73;9.53;;;10.70;99.90;;;;;;5042521;28;20421;-55
2023/10/13 07:21:31;;;;;;;17.37;9.60;;;10.80;99.90;;;;;;5041883;28;20975;-58
2023/10/13 07:24:11;;;;;;;23.97;10.80;;;10.80;99.90;;;;;;5047544;28;20488;-54
2023/10/13 07:26:42;;;;;;;20.50;11.00;;;10.90;99.90;;;;;;5048152;28;20417;-54
2023/10/13 07:29:09;;;;;;;29.03;12.00;;;11.00;99.90;;;;;;5041327;28;21240;-57
2023/10/13 07:31:34;;;;;;;39.67;10.53;;;11.10;99.90;;;;;;5045005;28;20465;-55
2023/10/13 07:34:10;;;;;;;28.93;11.60;;;11.10;99.90;;;;;;5044525;28;20418;-57
2023/10/13 07:36:39;;;;;;;28.73;11.13;;;11.30;99.90;;;;;;5044092;28;20194;-59
2023/10/13 07:39:21;;;;;;;32.23;10.80;;;11.30;99.90;;;;;;5044550;28;20958;-58
2023/10/13 07:41:51;;;;;;;25.67;11.13;;;11.40;99.90;;;;;;5045141;28;20583;-55
2023/10/13 07:44:20;;;;;;;25.33;10.80;;;11.50;99.90;;;;;;5042548;28;20546;-55
2023/10/13 07:46:58;;;;;;;24.73;11.20;;;11.60;99.90;;;;;;5045162;28;20515;-57
2023/10/13 07:49:30;;;;;;;29.87;12.30;;;11.70;99.90;;;;;;5043247;28;20436;-55
2023/10/13 07:54:49;;;;;;;23.33;10.43;;;12.00;99.90;;;;;;5038193;28;20938;-55
2023/10/13 07:57:15;;;;;;;34.63;11.03;;;12.10;99.90;;;;;;5038199;28;20449;-54
2023/10/13 07:59:53;;;;;;;20.83;9.80;;;12.20;99.90;;;;;;5043799;28;20852;-58
2023/10/13 08:03:09;;;;;;;18.27;9.23;;;12.30;99.90;;;;;;5046020;28;20503;-55
2023/10/13 08:05:14;;;;;;;23.93;10.60;;;12.50;99.90;;;;;;5042400;28;20508;-57
2023/10/13 08:07:42;;;;;;;22.53;10.97;;;12.60;99.90;;;;;;5042969;28;20451;-57
2023/10/13 08:10:10;;;;;;;19.90;9.23;;;12.80;99.90;;;;;;5042458;28;20449;-56
2023/10/13 08:12:37;;;;;;;21.00;10.70;;;12.90;99.90;;;;;;5046029;28;20949;-57
2023/10/13 08:15:20;;;;;;;22.47;10.27;;;13.00;99.90;;;;;;5039804;28;20506;-54
2023/10/13 08:17:46;;;;;;;27.33;10.10;;;13.20;99.90;;;;;;5035513;28;20445;-57
2023/10/13 08:20:12;;;;;;;23.67;11.40;;;13.30;99.90;;;;;;5038907;28;20947;-59
2023/10/13 08:22:39;;;;;;;22.90;10.90;;;13.40;99.90;;;;;;5039395;28;20749;-56
2023/10/13 08:25:20;;;;;;;21.10;10.50;;;13.50;99.90;;;;;;5045401;28;20582;-56
2023/10/13 08:28:04;;;;;;;22.30;10.47;;;13.60;99.50;;;;;;5042207;28;20999;-57
2023/10/13 08:30:30;;;;;;;17.10;8.53;;;13.70;98.20;;;;;;5044365;28;20471;-57
2023/10/13 08:32:59;;;;;;;26.03;10.80;;;13.80;97.50;;;;;;5044883;28;20461;-57
2023/10/13 08:35:35;;;;;;;35.27;12.37;;;13.90;97.20;;;;;;5043915;28;20430;-55
2023/10/13 08:38:13;;;;;;;24.63;10.90;;;14.00;97.10;;;;;;5037929;28;20904;-55
2023/10/13 08:40:56;;;;;;;28.30;11.57;;;14.10;97.00;;;;;;5034418;28;20426;-59
2023/10/13 08:43:23;;;;;;;22.27;10.57;;;14.20;97.40;;;;;;5047203;28;20421;-54
2023/10/13 08:48:19;;;;;;;31.70;10.70;;;14.30;98.60;;;;;;5038473;28;20830;-56
2023/10/13 08:53:28;;;;;;;22.67;10.13;;;14.50;98.90;;;;;;5044394;28;20461;-55
2023/10/13 09:07:08;;;;;;;22.60;8.70;;;15.20;99.70;;;;;;5043491;28;20417;-59
2023/10/13 09:12:14;;;;;;;20.20;7.20;;;15.50;98.90;;;;;;5035860;28;20453;-56
2023/10/13 09:14:44;;;;;;;15.10;7.27;;;15.60;97.80;;;;;;5041579;28;20855;-57
2023/10/13 09:17:12;;;;;;;13.57;6.20;;;15.80;98.40;;;;;;5043655;28;20450;-56
2023/10/13 09:19:56;;;;;;;18.77;5.90;;;15.90;96.40;;;;;;5043259;28;20444;-55
2023/10/13 09:22:35;;;;;;;10.40;6.50;;;16.10;97.10;;;;;;5030714;28;20491;-58
2023/10/13 09:25:02;;;;;;;17.07;5.50;;;16.30;95.90;;;;;;5032874;28;20519;-61
2023/10/13 09:27:33;;;;;;;17.37;5.80;;;16.50;94.10;;;;;;5043845;28;20428;-56
2023/10/13 09:30:18;;;;;;;8.07;5.50;;;16.70;91.70;;;;;;5042448;28;20508;-56
2023/10/13 09:32:50;;;;;;;12.50;5.87;;;17.00;83.10;;;;;;5034091;28;20532;-60
2023/10/13 09:35:22;;;;;;;17.80;5.57;;;17.20;79.20;;;;;;5036084;28;20429;-60
2023/10/13 09:37:50;;;;;;;14.07;5.57;;;17.50;76.70;;;;;;5043409;28;20466;-57
2023/10/13 09:40:34;;;;;;;21.23;5.90;;;17.70;74.70;;;;;;5036684;28;20422;-59
2023/10/13 09:43:07;;;;;;;12.37;6.37;;;17.90;71.30;;;;;;5038577;28;20976;-56
2023/10/13 09:45:40;;;;;;;15.73;5.57;;;18.10;70.20;;;;;;5042718;28;20422;-61
2023/10/13 09:48:16;;;;;;;14.10;5.30;;;18.40;69.60;;;;;;5046515;28;20436;-60
2023/10/13 09:50:45;;;;;;;12.03;5.30;;;18.60;68.00;;;;;;5043513;28;20428;-58
2023/10/13 09:53:13;;;;;;;16.03;5.50;;;18.70;66.10;;;;;;5042752;28;20536;-56
2023/10/13 09:55:46;;;;;;;13.10;4.50;;;18.90;66.70;;;;;;5040295;28;20467;-56
2023/10/13 09:58:14;;;;;;;8.67;3.63;;;18.90;66.10;;;;;;5040170;28;20499;-60
2023/10/13 10:00:57;;;;;;;9.70;3.83;;;19.10;63.70;;;;;;5041421;28;20418;-57
2023/10/13 10:06:17;;;;;;;17.40;4.10;;;19.40;58.90;;;;;;5047512;28;20416;-59
2023/10/13 10:08:50;;;;;;;8.07;3.73;;;19.70;57.80;;;;;;5042577;28;20433;-57
2023/10/13 10:11:40;;;;;;;13.47;4.27;;;20.00;54.90;;;;;;5042305;28;20445;-56
2023/10/13 10:14:44;;;;;;;10.40;3.57;;;20.30;54.30;;;;;;5043324;28;20445;-58
2023/10/13 10:17:10;;;;;;;9.00;3.40;;;20.50;53.10;;;;;;5039873;28;20530;-57
2023/10/13 10:19:59;;;;;;;13.03;3.30;;;20.80;51.60;;;;;;5043743;28;20819;-57
2023/10/13 10:22:35;;;;;;;10.13;3.43;;;20.90;50.40;;;;;;5040473;28;20454;-56
2023/10/13 10:25:02;;;;;;;6.07;3.43;;;21.10;49.90;;;;;;5040488;28;20514;-56
2023/10/13 10:27:29;;;;;;;5.73;3.40;;;21.30;49.20;;;;;;5047930;28;20422;-57
2023/10/13 10:29:56;;;;;;;5.57;3.27;;;21.40;48.90;;;;;;5044438;28;20429;-56
2023/10/13 10:32:41;;;;;;;15.80;4.50;;;21.50;49.00;;;;;;5046783;28;20446;-56
2023/10/13 10:35:14;;;;;;;6.77;3.43;;;21.70;47.40;;;;;;5047306;28;20509;-56
2023/10/13 10:37:46;;;;;;;5.77;3.17;;;21.80;46.90;;;;;;5042336;28;20456;-59
2023/10/13 10:40:32;;;;;;;8.23;3.23;;;21.90;46.50;;;;;;5039463;28;20442;-61
2023/10/13 10:43:00;;;;;;;12.70;3.57;;;22.00;47.10;;;;;;5031096;28;21166;-58
2023/10/13 10:45:32;;;;;;;10.27;3.57;;;22.20;46.00;;;;;;5043628;28;20417;-58
2023/10/13 10:47:58;;;;;;;11.57;3.57;;;22.30;46.20;;;;;;5044032;28;20434;-55
2023/10/13 10:50:34;;;;;;;13.93;3.87;;;22.50;45.30;;;;;;5042541;28;20930;-59
2023/10/13 10:53:07;;;;;;;11.20;3.37;;;22.60;46.50;;;;;;5038040;28;20849;-55
2023/10/13 10:55:36;;;;;;;8.50;3.00;;;22.70;46.40;;;;;;5040690;28;20430;-55
2023/10/13 10:58:04;;;;;;;9.40;3.43;;;22.90;45.90;;;;;;5039089;28;20545;-59
2023/10/13 11:00:45;;;;;;;9.90;4.10;;;23.00;45.00;;;;;;5041200;28;21652;-55
2023/10/13 11:03:11;;;;;;;7.27;3.43;;;23.10;45.40;;;;;;5043773;28;20453;-57
2023/10/13 11:05:48;;;;;;;10.23;4.27;;;23.30;45.40;;;;;;5049460;28;20468;-57
2023/10/13 11:08:32;;;;;;;10.33;3.67;;;23.60;45.90;;;;;;5042175;28;20269;-57
2023/10/13 11:11:04;;;;;;;4.10;3.20;;;23.80;45.10;;;;;;5041309;28;20456;-56
2023/10/13 11:13:53;;;;;;;6.13;3.07;;;24.10;44.50;;;;;;5045479;28;20504;-59
2023/10/13 11:16:24;;;;;;;12.27;3.60;;;24.50;44.10;;;;;;5040635;28;20433;-60
2023/10/13 11:19:01;;;;;;;9.00;3.20;;;24.80;42.20;;;;;;5045372;28;20448;-59
2023/10/13 11:21:30;;;;;;;6.30;3.80;;;25.00;40.50;;;;;;5038686;28;20448;-57
2023/10/13 11:23:57;;;;;;;6.80;3.30;;;25.10;40.00;;;;;;5032893;28;20437;-59
2023/10/13 11:26:33;;;;;;;9.80;3.00;;;25.10;39.90;;;;;;5042198;28;20842;-60
2023/10/13 11:28:59;;;;;;;9.43;2.90;;;25.10;39.50;;;;;;5044714;28;20752;-58
2023/10/13 11:31:25;;;;;;;7.17;2.73;;;25.10;39.00;;;;;;5042079;28;20198;-58
2023/10/13 11:33:52;;;;;;;6.03;2.90;;;25.20;39.70;;;;;;5040115;28;20182;-56
2023/10/13 11:36:22;;;;;;;6.70;3.33;;;25.60;39.50;;;;;;5041724;28;20183;-59
2023/10/13 11:41:14;;;;;;;8.63;3.30;;;26.30;37.10;;;;;;5044124;28;20592;-63
2023/10/13 11:49:32;;;;;;;12.75;3.08;;;27.50;34.70;;;;;;5036043;28;20179;-60
2023/10/13 11:52:09;;;;;;;6.05;3.35;;;27.70;33.80;;;;;;5038451;28;20182;-54
2023/10/13 11:54:38;;;;;;;6.60;3.03;;;28.10;34.10;;;;;;5039534;28;20178;-56
2023/10/13 11:57:07;;;;;;;8.98;2.88;;;28.50;35.10;;;;;;5036820;28;20837;-57
2023/10/13 11:59:36;;;;;;;6.28;3.05;;;28.90;34.80;;;;;;5040608;28;20289;-56
2023/10/13 12:04:51;;;;;;;8.55;3.47;;;29.60;33.40;;;;;;5046620;28;20177;-58
2023/10/13 12:07:19;;;;;;;6.28;2.85;;;29.70;33.90;;;;;;5042211;28;20187;-58
2023/10/13 12:12:25;;;;;;;12.13;3.13;;;29.90;32.70;;;;;;5040078;28;20218;-56
2023/10/13 12:14:57;;;;;;;7.75;3.10;;;29.90;33.20;;;;;;5041489;28;20266;-57
2023/10/13 12:17:34;;;;;;;10.63;3.15;;;29.90;33.30;;;;;;5043887;28;20230;-55
2023/10/13 12:20:05;;;;;;;12.32;3.22;;;29.90;33.70;;;;;;5043009;28;20174;-60
2023/10/13 12:22:42;;;;;;;10.20;3.10;;;29.80;33.20;;;;;;5042309;28;20288;-59
2023/10/13 12:25:44;;;;;;;7.53;3.03;;;29.70;33.60;;;;;;5039723;28;20212;-57
2023/10/13 12:28:18;;;;;;;6.20;3.50;;;29.60;32.90;;;;;;5043152;28;20264;-56
2023/10/13 12:30:54;;;;;;;6.75;2.67;;;29.40;34.10;;;;;;5043936;28;20180;-56
2023/10/13 12:33:27;;;;;;;7.65;3.17;;;29.30;34.40;;;;;;5044749;28;20230;-61
2023/10/13 12:49:49;;;;;;;4.85;3.20;;;28.70;33.50;;;;;;5041636;28;20193;-57
2023/10/13 12:52:25;;;;;;;5.85;3.15;;;28.70;34.00;;;;;;5044621;28;20295;-57
2023/10/13 12:57:23;;;;;;;5.75;3.17;;;28.70;33.50;;;;;;5043350;28;20309;-56
2023/10/13 12:59:49;;;;;;;7.57;3.38;;;28.60;33.50;;;;;;5042422;28;20322;-60
2023/10/13 13:02:15;;;;;;;17.70;3.50;;;28.50;33.20;;;;;;5039908;28;20722;-61
2023/10/13 13:04:44;;;;;;;7.38;3.40;;;28.40;33.30;;;;;;5040345;28;20273;-59
2023/10/13 13:07:13;;;;;;;16.95;3.70;;;28.40;34.00;;;;;;5041838;28;20200;-57
2023/10/13 13:09:42;;;;;;;8.82;3.78;;;28.50;34.20;;;;;;5043708;28;20194;-58
2023/10/13 13:12:09;;;;;;;7.10;3.10;;;28.50;32.80;;;;;;5040551;28;20202;-58
2023/10/13 13:14:34;;;;;;;9.25;3.58;;;28.50;33.60;;;;;;5044229;28;20221;-57
2023/10/13 13:17:06;;;;;;;9.65;2.97;;;28.60;33.70;;;;;;5049099;28;20226;-58
2023/10/13 13:19:36;;;;;;;8.02;3.05;;;28.60;34.50;;;;;;5044461;28;20192;-59
2023/10/13 13:22:02;;;;;;;8.85;3.13;;;28.60;33.00;;;;;;5044082;28;20198;-59
2023/10/13 13:24:29;;;;;;;12.55;3.58;;;28.50;32.60;;;;;;5049319;28;20189;-59
2023/10/13 13:26:56;;;;;;;6.57;3.10;;;28.30;33.20;;;;;;5050269;28;20258;-61
2023/10/13 13:29:21;;;;;;;11.50;3.40;;;28.20;32.90;;;;;;5047374;28;20186;-57
2023/10/13 13:31:47;;;;;;;8.87;3.70;;;28.20;33.00;;;;;;5050715;28;20207;-56
2023/10/13 13:34:13;;;;;;;5.30;3.40;;;28.20;32.90;;;;;;5051382;28;20235;-57
2023/10/13 13:36:44;;;;;;;9.07;3.73;;;28.20;33.00;;;;;;5041114;28;20179;-56
2023/10/13 13:39:10;;;;;;;8.60;3.20;;;28.30;34.20;;;;;;5051442;28;20186;-57
2023/10/13 13:41:36;;;;;;;9.33;3.70;;;28.50;34.40;;;;;;5045293;28;20194;-57
2023/10/13 13:46:56;;;;;;;7.63;3.38;;;28.70;33.70;;;;;;5049966;28;20199;-58
2023/10/13 13:49:29;;;;;;;7.17;3.47;;;28.80;33.10;;;;;;5045464;28;20217;-56
2023/10/13 13:51:55;;;;;;;10.73;3.40;;;28.90;32.90;;;;;;5045790;28;20195;-57
2023/10/13 13:54:21;;;;;;;6.40;3.53;;;28.90;32.80;;;;;;5042994;28;20309;-61
2023/10/13 13:56:47;;;;;;;5.53;2.90;;;28.90;32.40;;;;;;5043212;28;20262;-57
2023/10/13 13:59:15;;;;;;;10.68;3.38;;;28.90;33.10;;;;;;5047648;28;20191;-57
2023/10/13 14:01:44;;;;;;;6.97;3.17;;;29.10;34.30;;;;;;5043512;28;20217;-59
2023/10/13 14:04:10;;;;;;;10.80;3.90;;;29.20;33.30;;;;;;5049392;28;20316;-55
2023/10/13 14:06:37;;;;;;;11.95;3.60;;;29.30;33.50;;;;;;5039073;28;20263;-56
2023/10/13 14:09:13;;;;;;;14.15;4.00;;;29.50;33.50;;;;;;5050443;28;20182;-56
2023/10/13 14:16:50;;;;;;;8.10;3.40;;;29.60;33.20;;;;;;5041394;28;20202;-58
2023/10/13 14:19:26;;;;;;;8.63;3.00;;;29.90;32.70;;;;;;5037726;28;20522;-57
2023/10/13 14:22:06;;;;;;;13.80;4.45;;;30.00;32.70;;;;;;5046967;28;20210;-57
2023/10/13 14:24:34;;;;;;;6.03;3.42;;;30.20;32.00;;;;;;5041779;28;21047;-54
2023/10/13 14:27:08;;;;;;;6.85;3.35;;;30.40;32.70;;;;;;5038793;28;20189;-57
2023/10/13 14:29:39;;;;;;;15.73;4.10;;;30.60;31.80;;;;;;5033735;28;20555;-55
2023/10/13 14:32:12;;;;;;;6.43;3.10;;;30.70;31.20;;;;;;5035735;28;20612;-58
2023/10/13 14:34:41;;;;;;;13.60;3.80;;;30.80;31.50;;;;;;5041591;28;20191;-58
2023/10/13 14:37:08;;;;;;;7.97;3.22;;;31.00;31.60;;;;;;5035020;28;20261;-55
2023/10/13 14:39:35;;;;;;;6.05;3.05;;;31.30;30.50;;;;;;5035666;28;20179;-55
2023/10/13 14:42:05;;;;;;;7.65;3.40;;;31.60;30.20;;;;;;5039058;28;20199;-59
2023/10/13 14:44:32;;;;;;;10.10;3.47;;;31.90;30.00;;;;;;5035336;28;20542;-59
2023/10/13 14:46:58;;;;;;;8.13;3.45;;;32.20;29.60;;;;;;5034728;28;20179;-59
2023/10/13 14:49:23;;;;;;;5.93;3.65;;;32.50;29.20;;;;;;5034160;28;20234;-57
2023/10/13 14:51:49;;;;;;;11.02;3.50;;;32.90;29.00;;;;;;5042783;28;20208;-57
2023/10/13 14:54:15;;;;;;;7.82;4.05;;;33.40;28.30;;;;;;5035089;28;20237;-57
2023/10/13 14:56:42;;;;;;;5.70;3.00;;;34.00;28.20;;;;;;5041874;28;20179;-60
2023/10/13 14:59:16;;;;;;;11.23;3.60;;;34.60;27.30;;;;;;5038886;28;20258;-57
2023/10/13 15:01:42;;;;;;;6.57;3.30;;;34.60;26.90;;;;;;5040188;28;20210;-58
2023/10/13 15:04:08;;;;;;;8.35;3.53;;;34.70;27.00;;;;;;5037078;28;20175;-58
2023/10/13 15:06:33;;;;;;;4.88;3.22;;;35.50;27.40;;;;;;5050472;22;20278;-57
2023/10/13 15:09:00;;;;;;;7.45;3.65;;;36.30;27.20;;;;;;5025783;28;20255;-57
2023/10/13 15:11:27;;;;;;;10.45;4.05;;;37.10;25.90;;;;;;5027120;28;20176;-57
2023/10/13 15:13:56;;;;;;;7.57;3.88;;;37.70;25.00;;;;;;5027275;28;20215;-57
2023/10/13 15:16:24;;;;;;;8.57;3.25;;;38.10;24.70;;;;;;5028023;28;20234;-57
2023/10/13 15:18:52;;;;;;;8.98;3.20;;;37.60;24.20;;;;;;5024355;28;20207;-58
2023/10/13 15:21:34;;;;;;;8.35;3.55;;;35.80;24.70;;;;;;5023755;28;20237;-57
2023/10/13 15:24:03;;;;;;;9.38;2.92;;;33.60;25.80;;;;;;5019154;28;20171;-58
2023/10/13 15:26:37;;;;;;;6.00;3.40;;;31.60;27.10;;;;;;5020630;28;20201;-58
2023/10/13 15:29:09;;;;;;;6.20;3.42;;;30.00;28.40;;;;;;5017780;28;20271;-58
2023/10/13 15:34:12;;;;;;;9.30;3.75;;;27.50;30.10;;;;;;5024963;28;20176;-58
2023/10/13 15:36:44;;;;;;;7.78;2.70;;;26.70;31.30;;;;;;5021949;28;20195;-58
2023/10/13 15:39:11;;;;;;;9.63;3.55;;;26.10;32.00;;;;;;5027720;28;20163;-58
2023/10/13 15:41:40;;;;;;;5.77;2.80;;;25.50;32.80;;;;;;5024224;28;20199;-58
2023/10/13 15:44:10;;;;;;;7.37;2.97;;;25.10;33.60;;;;;;5028453;28;20575;-58
2023/10/13 15:46:36;;;;;;;8.10;3.47;;;24.80;34.80;;;;;;5028655;28;20199;-58
2023/10/13 15:49:05;;;;;;;8.27;3.70;;;24.50;36.20;;;;;;5023305;28;20282;-58
2023/10/13 15:51:32;;;;;;;10.73;3.40;;;24.20;36.60;;;;;;5021701;28;20211;-57
2023/10/13 15:53:59;;;;;;;6.47;3.60;;;24.00;37.50;;;;;;5020057;28;20176;-57
2023/10/13 15:56:25;;;;;;;6.80;3.63;;;23.80;38.70;;;;;;5020124;28;20545;-57
2023/10/13 15:58:51;;;;;;;8.10;4.37;;;23.60;39.40;;;;;;5023124;28;20553;-57
2023/10/13 16:01:17;;;;;;;10.87;3.40;;;23.30;39.70;;;;;;5017254;28;20224;-57
2023/10/13 16:03:44;;;;;;;5.63;3.57;;;23.20;39.80;;;;;;5021446;28;20731;-58
2023/10/13 16:06:12;;;;;;;8.60;3.80;;;23.00;40.70;;;;;;5023616;28;21441;-57
2023/10/13 16:08:42;;;;;;;8.97;3.50;;;22.80;41.60;;;;;;5023013;28;20484;-57
2023/10/13 16:11:13;;;;;;;8.17;3.80;;;22.60;41.80;;;;;;5023470;28;20807;-58